createdAt,value
2022-11-15T00:00:59.552Z,5.64
2022-11-15T00:03:28.666Z,5.55
2022-11-15T00:05:55.718Z,5.51
2022-11-15T00:08:22.354Z,5.54
2022-11-15T00:11:00.235Z,5.51
2022-11-15T00:13:27.617Z,5.71
2022-11-15T00:15:57.971Z,5.65
2022-11-15T00:18:24.470Z,5.73
2022-11-15T00:20:50.900Z,5.74
2022-11-15T00:23:17.465Z,5.13
2022-11-15T00:25:43.861Z,5.13
2022-11-15T00:28:10.284Z,5.08
2022-11-15T00:30:36.739Z,5.10
2022-11-15T00:33:07.263Z,5.08
2022-11-15T00:35:35.121Z,5.06
2022-11-15T00:38:02.802Z,5.29
2022-11-15T00:40:29.650Z,5.02
2022-11-15T00:42:56.407Z,5.07
2022-11-15T00:45:23.307Z,5.25
2022-11-15T00:47:49.725Z,5.30
2022-11-15T00:50:16.402Z,5.34
2022-11-15T00:52:43.141Z,5.29
2022-11-15T00:55:19.936Z,5.25
2022-11-15T00:57:47.510Z,5.20
2022-11-15T01:00:14.170Z,5.06
2022-11-15T01:02:40.594Z,4.84
2022-11-15T01:05:07.669Z,4.84
2022-11-15T01:07:34.290Z,4.87
2022-11-15T01:10:00.851Z,4.86
2022-11-15T01:12:27.240Z,4.62
2022-11-15T01:14:53.632Z,4.53
2022-11-15T01:17:20.597Z,4.55
2022-11-15T01:19:47.005Z,4.53
2022-11-15T01:22:13.467Z,4.37
2022-11-15T01:24:39.980Z,4.16
2022-11-15T01:27:06.704Z,4.23
2022-11-15T01:29:33.173Z,4.21
2022-11-15T01:31:59.666Z,4.16
2022-11-15T01:34:26.090Z,4.14
2022-11-15T01:36:52.550Z,4.14
2022-11-15T01:39:19.005Z,4.09
2022-11-15T01:41:45.529Z,4.09
2022-11-15T01:44:38.682Z,4.08
2022-11-15T01:47:13.106Z,4.12
2022-11-15T01:49:47.129Z,4.12
2022-11-15T01:52:18.824Z,4.13
2022-11-15T01:54:46.617Z,4.16
2022-11-15T01:57:14.256Z,4.23
2022-11-15T01:59:43.308Z,4.25
2022-11-15T02:02:09.871Z,4.36
2022-11-15T02:04:41.335Z,4.32
2022-11-15T02:07:10.809Z,4.43
2022-11-15T02:09:38.560Z,4.44
2022-11-15T02:12:06.063Z,4.44
2022-11-15T02:14:33.268Z,4.37
2022-11-15T02:17:11.852Z,4.42
2022-11-15T02:20:10.737Z,4.28
2022-11-15T02:23:02.587Z,4.26
2022-11-15T02:25:39.977Z,4.24
2022-11-15T02:28:47.816Z,4.18
2022-11-15T02:31:32.662Z,4.14
2022-11-15T02:34:26.058Z,4.12
2022-11-15T02:36:55.315Z,4.08
2022-11-15T02:39:33.856Z,4.04
2022-11-15T02:42:05.431Z,4.04
2022-11-15T02:44:35.574Z,4.04
2022-11-15T02:47:13.543Z,4.03
2022-11-15T02:49:52.642Z,3.97
2022-11-15T02:52:22.008Z,3.92
2022-11-15T02:55:02.196Z,3.89
2022-11-15T02:57:34.444Z,3.88
2022-11-15T03:00:04.438Z,3.62
2022-11-15T03:02:42.865Z,3.78
2022-11-15T03:05:46.328Z,3.74
2022-11-15T03:08:43.868Z,3.73
2022-11-15T03:11:14.430Z,3.70
2022-11-15T03:13:45.857Z,3.67
2022-11-15T03:16:29.214Z,3.66
2022-11-15T03:19:15.084Z,3.59
2022-11-15T03:21:42.057Z,3.55
2022-11-15T03:24:09.661Z,3.36
2022-11-15T03:26:39.699Z,3.44
2022-11-15T03:29:12.535Z,3.40
2022-11-15T03:31:51.143Z,3.40
2022-11-15T03:34:23.700Z,3.41
2022-11-15T03:36:51.914Z,3.40
2022-11-15T03:39:20.749Z,3.10
2022-11-15T03:42:06.077Z,3.26
2022-11-15T03:44:48.101Z,3.19
2022-11-15T03:47:22.435Z,3.13
2022-11-15T03:50:03.173Z,3.13
2022-11-15T03:52:33.830Z,3.18
2022-11-15T03:55:02.490Z,3.21
2022-11-15T03:57:28.986Z,3.19
2022-11-15T03:59:55.492Z,3.22
2022-11-15T04:02:21.973Z,3.11
2022-11-15T04:04:48.386Z,3.23
2022-11-15T04:07:14.933Z,3.20
2022-11-15T04:10:00.384Z,3.26
2022-11-15T04:12:32.532Z,3.25
2022-11-15T04:15:11.503Z,3.23
2022-11-15T04:17:39.328Z,3.07
2022-11-15T04:20:30.136Z,3.19
2022-11-15T04:23:16.409Z,3.12
2022-11-15T04:25:44.173Z,3.16
2022-11-15T04:28:11.383Z,3.02
2022-11-15T04:30:37.923Z,3.07
2022-11-15T04:33:04.553Z,3.10
2022-11-15T04:35:31.485Z,3.16
2022-11-15T04:37:58.882Z,3.10
2022-11-15T04:40:25.353Z,3.17
2022-11-15T04:42:51.791Z,3.16
2022-11-15T04:45:18.301Z,3.16
2022-11-15T04:47:46.270Z,3.19
2022-11-15T04:50:14.334Z,3.21
2022-11-15T04:52:43.152Z,3.20
2022-11-15T04:55:12.776Z,3.22
2022-11-15T04:57:39.399Z,3.05
2022-11-15T05:00:07.975Z,3.16
2022-11-15T05:02:53.201Z,3.21
2022-11-15T05:05:19.670Z,3.19
2022-11-15T05:07:46.124Z,3.24
2022-11-15T05:10:12.597Z,3.20
2022-11-15T05:12:39.262Z,3.14
2022-11-15T05:15:06.233Z,3.29
2022-11-15T05:17:32.759Z,3.28
2022-11-15T05:19:59.186Z,3.30
2022-11-15T05:22:25.591Z,3.30
2022-11-15T05:24:52.028Z,3.26
2022-11-15T05:27:18.578Z,3.29
2022-11-15T05:29:44.965Z,3.42
2022-11-15T05:32:12.721Z,3.46
2022-11-15T05:34:39.444Z,3.55
2022-11-15T05:37:06.110Z,3.61
2022-11-15T05:39:32.576Z,3.68
2022-11-15T05:42:06.132Z,3.67
2022-11-15T05:44:33.217Z,3.70
2022-11-15T05:46:59.755Z,3.76
2022-11-15T05:49:31.372Z,3.78
2022-11-15T05:51:58.900Z,3.96
2022-11-15T05:54:25.889Z,3.72
2022-11-15T05:56:53.018Z,3.85
2022-11-15T05:59:19.866Z,3.89
2022-11-15T06:01:46.418Z,3.80
2022-11-15T06:04:13.018Z,3.93
2022-11-15T06:06:39.624Z,3.66
2022-11-15T06:09:06.079Z,3.82
2022-11-15T06:11:32.495Z,3.76
2022-11-15T06:13:58.912Z,3.77
2022-11-15T06:16:25.324Z,3.73
2022-11-15T06:18:51.746Z,3.70
2022-11-15T06:21:18.164Z,3.63
2022-11-15T06:23:44.608Z,3.67
2022-11-15T06:26:11.036Z,3.68
2022-11-15T06:28:37.497Z,3.68
2022-11-15T06:31:14.283Z,3.68
2022-11-15T06:33:41.293Z,3.67
2022-11-15T06:36:17.081Z,3.71
2022-11-15T06:38:45.500Z,3.47
2022-11-15T06:41:13.244Z,3.54
2022-11-15T06:43:40.248Z,3.47
2022-11-15T06:46:07.724Z,3.41
2022-11-15T06:48:34.764Z,3.41
2022-11-15T06:51:03.046Z,3.43
2022-11-15T06:53:31.581Z,3.57
2022-11-15T06:56:06.963Z,3.62
2022-11-15T06:58:33.846Z,3.73
2022-11-15T07:01:03.364Z,3.75
2022-11-15T07:03:30.528Z,3.85
2022-11-15T07:06:02.736Z,3.68
2022-11-15T07:08:32.213Z,3.68
2022-11-15T07:11:01.329Z,3.74
2022-11-15T07:13:29.169Z,3.66
2022-11-15T07:15:56.295Z,3.58
2022-11-15T07:18:22.743Z,3.75
2022-11-15T07:20:49.212Z,3.89
2022-11-15T07:23:15.687Z,3.73
2022-11-15T07:25:42.187Z,3.65
2022-11-15T07:28:08.775Z,3.63
2022-11-15T07:30:35.319Z,3.59
2022-11-15T07:33:01.825Z,3.85
2022-11-15T07:35:29.508Z,4.05
2022-11-15T07:38:03.678Z,3.83
2022-11-15T07:40:32.554Z,4.02
2022-11-15T07:43:03.651Z,3.80
2022-11-15T07:45:30.095Z,3.92
2022-11-15T07:47:57.271Z,3.91
2022-11-15T07:50:24.882Z,3.92
2022-11-15T07:52:58.755Z,3.82
2022-11-15T07:55:27.979Z,4.02
2022-11-15T07:58:00.546Z,3.96
2022-11-15T08:00:26.980Z,4.17
2022-11-15T08:02:53.522Z,4.33
2022-11-15T08:05:20.061Z,4.16
2022-11-15T08:07:46.530Z,4.36
2022-11-15T08:10:12.988Z,4.43
2022-11-15T08:12:39.505Z,4.50
2022-11-15T08:15:06.596Z,4.60
2022-11-15T08:17:33.792Z,4.55
2022-11-15T08:20:00.219Z,4.60
2022-11-15T08:22:26.646Z,4.77
2022-11-15T08:24:53.081Z,4.92
2022-11-15T08:27:19.628Z,4.96
2022-11-15T08:29:47.132Z,5.05
2022-11-15T08:32:13.648Z,5.13
2022-11-15T08:34:40.226Z,5.14
2022-11-15T08:37:06.750Z,5.25
2022-11-15T08:39:33.212Z,5.26
2022-11-15T08:41:59.660Z,5.40
2022-11-15T08:44:26.098Z,5.45
2022-11-15T08:46:52.618Z,5.50
2022-11-15T08:49:19.340Z,5.61
2022-11-15T08:51:46.174Z,5.45
2022-11-15T08:54:12.604Z,5.64
2022-11-15T08:56:39.023Z,5.64
2022-11-15T08:59:05.536Z,5.72
2022-11-15T09:01:33.477Z,5.81
2022-11-15T09:04:00.062Z,5.87
2022-11-15T09:06:26.517Z,5.91
2022-11-15T09:08:53.254Z,5.97
2022-11-15T09:11:22.238Z,5.93
2022-11-15T09:13:48.669Z,6.00
2022-11-15T09:16:16.221Z,6.06
2022-11-15T09:18:42.901Z,6.12
2022-11-15T09:21:10.431Z,6.21
2022-11-15T09:23:36.928Z,6.25
2022-11-15T09:26:05.567Z,6.33
2022-11-15T09:28:33.953Z,6.32
2022-11-15T09:31:02.779Z,6.43
2022-11-15T09:33:29.581Z,6.47
2022-11-15T09:36:10.145Z,6.57
2022-11-15T09:38:36.749Z,6.57
2022-11-15T09:41:15.221Z,6.69
2022-11-15T09:44:00.484Z,6.74
2022-11-15T09:46:32.832Z,6.82
2022-11-15T09:49:02.533Z,6.83
2022-11-15T09:51:34.342Z,6.85
2022-11-15T09:57:21.323Z,6.92
2022-11-15T09:59:56.652Z,7.03
2022-11-15T10:02:53.428Z,7.06
2022-11-15T10:05:23.783Z,7.03
2022-11-15T10:08:07.392Z,7.10
2022-11-15T10:10:44.554Z,7.10
2022-11-15T10:13:19.747Z,7.20
2022-11-15T10:15:49.321Z,7.21
2022-11-15T10:18:20.542Z,7.23
2022-11-15T10:20:54.938Z,7.33
2022-11-15T10:23:23.897Z,7.33
2022-11-15T10:26:03.656Z,7.30
2022-11-15T10:28:33.219Z,7.34
2022-11-15T10:31:02.023Z,7.38
2022-11-15T10:33:37.193Z,7.35
2022-11-15T10:36:09.671Z,7.44
2022-11-15T10:38:51.106Z,7.46
2022-11-15T10:41:23.980Z,7.54
2022-11-15T10:44:12.209Z,7.59
2022-11-15T10:46:48.373Z,7.58
2022-11-15T10:49:19.344Z,7.66
2022-11-15T10:51:47.895Z,7.69
2022-11-15T10:54:38.675Z,7.72
2022-11-15T10:57:15.109Z,7.82
2022-11-15T10:59:47.564Z,7.81
2022-11-15T11:02:36.790Z,7.88
2022-11-15T11:05:06.353Z,7.92
2022-11-15T11:07:35.769Z,7.97
2022-11-15T11:10:49.890Z,8.01
2022-11-15T11:13:22.561Z,8.13
2022-11-15T11:16:14.091Z,8.18
2022-11-15T11:18:55.362Z,8.24
2022-11-15T11:21:43.450Z,8.30
2022-11-15T11:24:26.400Z,8.34
2022-11-15T11:27:05.084Z,8.37
2022-11-15T11:29:52.976Z,8.41
2022-11-15T11:32:57.060Z,8.44
2022-11-15T11:35:28.318Z,8.45
2022-11-15T11:38:25.783Z,8.56
2022-11-15T11:41:00.116Z,8.60
2022-11-15T11:43:35.707Z,8.63
2022-11-15T11:46:14.321Z,8.65
2022-11-15T11:48:52.613Z,8.64
2022-11-15T11:51:31.870Z,8.72
2022-11-15T11:54:22.122Z,8.73
2022-11-15T11:56:49.668Z,8.75
2022-11-15T11:59:34.338Z,8.83
2022-11-15T12:02:13.064Z,8.86
2022-11-15T12:04:44.644Z,8.83
2022-11-15T12:07:29.031Z,8.89
2022-11-15T12:10:23.567Z,8.90
2022-11-15T12:13:11.058Z,8.91
2022-11-15T12:15:49.739Z,8.84
2022-11-15T12:18:17.385Z,8.87
2022-11-15T12:20:57.161Z,8.92
2022-11-15T12:24:05.321Z,8.91
2022-11-15T12:26:55.521Z,8.90
2022-11-15T12:29:32.542Z,8.91
2022-11-15T12:32:00.919Z,8.88
2022-11-15T12:34:57.797Z,8.92
2022-11-15T12:37:38.837Z,8.98
2022-11-15T12:40:08.255Z,8.97
2022-11-15T12:42:43.754Z,8.99
2022-11-15T12:45:35.683Z,9.03
2022-11-15T12:48:17.207Z,9.04
2022-11-15T12:50:55.490Z,9.07
2022-11-15T12:53:25.348Z,9.08
2022-11-15T12:56:07.127Z,9.11
2022-11-15T12:58:50.942Z,9.11
2022-11-15T13:01:36.151Z,9.13
2022-11-15T13:04:20.865Z,9.24
2022-11-15T13:06:48.420Z,9.23
2022-11-15T13:09:33.202Z,9.24
2022-11-15T13:12:02.801Z,9.22
2022-11-15T13:14:38.498Z,9.25
2022-11-15T13:17:20.038Z,9.34
2022-11-15T13:19:48.326Z,9.32
2022-11-15T13:22:33.951Z,9.25
2022-11-15T13:25:02.581Z,9.25
2022-11-15T13:27:29.887Z,9.24
2022-11-15T13:29:56.310Z,9.27
2022-11-15T13:32:23.129Z,9.31
2022-11-15T13:34:53.640Z,9.40
2022-11-15T13:37:23.152Z,9.39
2022-11-15T13:39:50.833Z,9.35
2022-11-15T13:42:19.583Z,9.44
2022-11-15T13:45:00.387Z,9.40
2022-11-15T13:47:28.648Z,9.46
2022-11-15T13:49:57.965Z,9.51
2022-11-15T13:52:29.038Z,9.55
2022-11-15T13:55:04.655Z,9.57
2022-11-15T13:57:41.171Z,9.48
2022-11-15T14:00:25.478Z,9.46
2022-11-15T14:02:52.563Z,9.51
2022-11-15T14:05:24.942Z,9.57
2022-11-15T14:08:14.278Z,9.55
2022-11-15T14:10:41.025Z,9.54
2022-11-15T14:13:27.916Z,9.53
2022-11-15T14:15:54.390Z,9.55
2022-11-15T14:18:48.222Z,9.47
2022-11-15T14:21:15.335Z,9.40
2022-11-15T14:23:42.577Z,9.41
2022-11-15T14:26:30.678Z,9.39
2022-11-15T14:28:57.447Z,9.33
2022-11-15T14:31:23.947Z,9.37
2022-11-15T14:33:50.472Z,9.28
2022-11-15T14:36:19.719Z,9.29
2022-11-15T14:38:47.057Z,9.34
2022-11-15T14:41:25.079Z,9.29
2022-11-15T14:43:52.858Z,9.33
2022-11-15T14:46:19.976Z,9.28
2022-11-15T14:48:46.625Z,9.24
2022-11-15T14:51:22.327Z,9.18
2022-11-15T14:53:49.564Z,9.22
2022-11-15T14:56:17.250Z,9.15
2022-11-15T14:58:43.749Z,9.18
2022-11-15T15:01:18.652Z,9.18
2022-11-15T15:03:45.159Z,9.16
2022-11-15T15:06:17.978Z,9.18
2022-11-15T15:08:46.566Z,9.11
2022-11-15T15:11:17.809Z,9.05
2022-11-15T15:13:44.475Z,9.06
2022-11-15T15:18:37.312Z,9.01
2022-11-15T15:21:07.940Z,8.96
2022-11-15T15:23:36.448Z,9.01
2022-11-15T15:26:02.955Z,8.96
2022-11-15T15:28:34.258Z,8.89
2022-11-15T15:31:01.807Z,8.88
2022-11-15T15:33:28.227Z,8.83
2022-11-15T15:35:54.721Z,8.78
2022-11-15T15:38:22.510Z,8.76
2022-11-15T15:40:51.551Z,8.78
2022-11-15T15:43:18.278Z,8.76
2022-11-15T15:45:45.995Z,8.72
2022-11-15T15:48:14.789Z,8.71
2022-11-15T15:50:43.686Z,8.74
2022-11-15T15:53:11.541Z,8.74
2022-11-15T15:55:38.562Z,8.78
2022-11-15T15:58:06.036Z,8.65
2022-11-15T16:00:34.560Z,8.66
2022-11-15T16:03:01.039Z,8.70
2022-11-15T16:05:27.496Z,8.65
2022-11-15T16:07:53.923Z,8.66
2022-11-15T16:10:28.833Z,8.59
2022-11-15T16:12:57.007Z,8.55
2022-11-15T16:15:26.287Z,8.49
2022-11-15T16:17:55.101Z,8.45
2022-11-15T16:20:50.349Z,8.49
2022-11-15T16:23:18.958Z,8.43
2022-11-15T16:25:46.905Z,8.38
2022-11-15T16:28:33.935Z,8.44
2022-11-15T16:31:06.824Z,8.30
2022-11-15T16:33:33.964Z,8.33
2022-11-15T16:36:01.092Z,8.26
2022-11-15T16:38:27.638Z,8.17
2022-11-15T16:40:54.167Z,8.29
2022-11-15T16:43:20.632Z,8.15
2022-11-15T16:45:47.149Z,8.09
2022-11-15T16:48:31.659Z,8.02
2022-11-15T16:50:59.491Z,7.81
2022-11-15T16:53:27.677Z,7.89
2022-11-15T16:55:55.609Z,7.79
2022-11-15T16:58:22.260Z,7.72
2022-11-15T17:00:55.489Z,7.62
2022-11-15T17:03:25.660Z,7.62
2022-11-15T17:05:52.538Z,7.56
2022-11-15T17:08:21.680Z,7.53
2022-11-15T17:10:48.113Z,7.55
2022-11-15T17:13:14.637Z,7.41
2022-11-15T17:15:41.179Z,7.41
2022-11-15T17:18:11.818Z,7.29
2022-11-15T17:20:38.227Z,7.36
2022-11-15T17:23:04.650Z,7.28
2022-11-15T17:25:31.053Z,7.36
2022-11-15T17:27:57.441Z,7.22
2022-11-15T17:30:23.856Z,7.13
2022-11-15T17:32:50.256Z,7.03
2022-11-15T17:35:16.733Z,6.98
2022-11-15T17:37:43.605Z,7.05
2022-11-15T17:40:10.739Z,6.91
2022-11-15T17:42:37.202Z,6.79
2022-11-15T17:45:08.397Z,6.64
2022-11-15T17:47:35.928Z,6.66
2022-11-15T17:50:02.459Z,6.63
2022-11-15T17:52:28.925Z,6.60
2022-11-15T17:54:55.316Z,6.60
2022-11-15T17:57:21.704Z,6.55
2022-11-15T17:59:48.991Z,6.52
2022-11-15T18:02:15.536Z,6.58
2022-11-15T18:04:42.039Z,6.58
2022-11-15T18:07:08.645Z,6.63
2022-11-15T18:09:35.076Z,6.58
2022-11-15T18:12:01.502Z,6.52
2022-11-15T18:14:27.935Z,6.54
2022-11-15T18:16:54.994Z,6.63
2022-11-15T18:19:21.555Z,6.65
2022-11-15T18:21:56.916Z,6.69
2022-11-15T18:24:27.122Z,6.67
2022-11-15T18:26:53.625Z,6.68
2022-11-15T18:29:21.306Z,6.69
2022-11-15T18:31:50.246Z,6.66
2022-11-15T18:34:17.415Z,6.68
2022-11-15T18:36:43.992Z,6.69
2022-11-15T18:39:16.194Z,6.50
2022-11-15T18:41:44.581Z,6.61
2022-11-15T18:44:10.983Z,6.58
2022-11-15T18:46:39.116Z,6.69
2022-11-15T18:49:07.686Z,6.54
2022-11-15T18:51:36.453Z,6.65
2022-11-15T18:54:03.842Z,6.65
2022-11-15T18:56:32.062Z,6.75
2022-11-15T18:59:00.602Z,6.88
2022-11-15T19:01:34.362Z,6.79
2022-11-15T19:04:08.304Z,6.66
2022-11-15T19:06:39.015Z,6.34
2022-11-15T19:09:06.186Z,6.47
2022-11-15T19:11:35.832Z,6.48
2022-11-15T19:14:07.720Z,6.42
2022-11-15T19:16:36.729Z,6.53
2022-11-15T19:19:06.386Z,6.39
2022-11-15T19:21:32.914Z,6.46
2022-11-15T19:24:00.234Z,6.38
2022-11-15T19:26:27.703Z,6.34
2022-11-15T19:28:56.192Z,6.20
2022-11-15T19:31:24.342Z,6.37
2022-11-15T19:33:52.660Z,6.28
2022-11-15T19:36:20.625Z,6.14
2022-11-15T19:38:47.424Z,6.20
2022-11-15T19:41:19.720Z,6.26
2022-11-15T19:43:50.866Z,6.27
2022-11-15T19:46:20.281Z,6.32
2022-11-15T19:48:47.779Z,5.91
2022-11-15T19:51:16.712Z,5.91
2022-11-15T19:53:43.443Z,6.04
2022-11-15T19:56:16.201Z,6.19
2022-11-15T19:58:43.787Z,6.06
2022-11-15T20:01:20.571Z,6.00
2022-11-15T20:03:48.257Z,5.95
2022-11-15T20:06:17.397Z,5.99
2022-11-15T20:08:45.327Z,6.06
2022-11-15T20:11:12.733Z,5.94
2022-11-15T20:13:39.942Z,5.85
2022-11-15T20:16:06.996Z,5.97
2022-11-15T20:18:34.614Z,6.00
2022-11-15T20:21:02.653Z,6.03
2022-11-15T20:23:29.133Z,6.00
2022-11-15T20:25:55.716Z,6.00
2022-11-15T20:28:26.965Z,6.18
2022-11-15T20:30:56.341Z,6.08
2022-11-15T20:33:23.472Z,5.94
2022-11-15T20:35:50.263Z,6.04
2022-11-15T20:38:17.302Z,6.06
2022-11-15T20:40:48.274Z,6.11
2022-11-15T20:43:17.134Z,5.95
2022-11-15T20:45:45.430Z,6.10
2022-11-15T20:48:13.882Z,5.99
2022-11-15T20:50:43.245Z,6.08
2022-11-15T20:53:12.092Z,6.16
2022-11-15T20:55:43.350Z,6.06
2022-11-15T20:58:10.838Z,5.99
2022-11-15T21:00:38.019Z,6.05
2022-11-15T21:03:08.952Z,6.08
2022-11-15T21:05:39.205Z,6.15
2022-11-15T21:08:06.157Z,6.15
2022-11-15T21:10:51.472Z,6.11
2022-11-15T21:13:18.270Z,6.12
2022-11-15T21:15:44.721Z,6.27
2022-11-15T21:18:11.221Z,6.27
2022-11-15T21:20:37.719Z,6.24
2022-11-15T21:23:04.170Z,6.09
2022-11-15T21:25:30.603Z,6.21
2022-11-15T21:27:57.022Z,6.23
2022-11-15T21:30:23.690Z,6.33
2022-11-15T21:32:50.232Z,6.14
2022-11-15T21:35:16.776Z,6.27
2022-11-15T21:37:43.217Z,6.28
2022-11-15T21:40:10.328Z,6.25
2022-11-15T21:42:36.767Z,6.17
2022-11-15T21:45:03.639Z,6.05
2022-11-15T21:47:30.062Z,6.06
2022-11-15T21:49:56.482Z,6.22
2022-11-15T21:52:22.881Z,6.04
2022-11-15T21:54:49.331Z,6.05
2022-11-15T21:57:15.772Z,6.08
2022-11-15T22:00:02.205Z,5.94
2022-11-15T22:02:28.638Z,6.07
2022-11-15T22:04:55.077Z,6.15
2022-11-15T22:07:21.605Z,6.07
2022-11-15T22:09:48.111Z,6.20
2022-11-15T22:12:14.520Z,6.17
2022-11-15T22:14:40.960Z,5.95
2022-11-15T22:17:13.248Z,5.90
2022-11-15T22:19:51.915Z,6.05
2022-11-15T22:22:19.030Z,6.07
2022-11-15T22:24:45.498Z,5.99
2022-11-15T22:27:11.939Z,6.04
2022-11-15T22:29:38.415Z,6.09
2022-11-15T22:32:04.859Z,6.08
2022-11-15T22:34:31.310Z,6.09
2022-11-15T22:39:44.251Z,6.12
2022-11-15T22:42:10.761Z,6.07
2022-11-15T22:44:37.213Z,6.00
2022-11-15T22:47:03.681Z,5.99
2022-11-15T22:49:30.163Z,6.07
2022-11-15T22:51:56.647Z,6.04
2022-11-15T22:54:23.151Z,6.04
2022-11-15T22:56:49.662Z,6.06
2022-11-15T22:59:16.122Z,5.87
2022-11-15T23:01:42.940Z,6.02
2022-11-15T23:04:09.472Z,5.79
2022-11-15T23:06:35.986Z,5.91
2022-11-15T23:09:02.450Z,5.96
2022-11-15T23:11:47.594Z,5.74
2022-11-15T23:14:14.080Z,5.95
2022-11-15T23:16:40.608Z,6.10
2022-11-15T23:19:10.055Z,6.12
2022-11-15T23:21:58.072Z,6.02
2022-11-15T23:24:24.897Z,6.06
2022-11-15T23:27:00.006Z,6.17
2022-11-15T23:29:28.285Z,5.95
2022-11-15T23:32:14.219Z,6.00
2022-11-15T23:34:43.042Z,5.99
2022-11-15T23:37:12.040Z,5.91
2022-11-15T23:39:38.501Z,6.15
2022-11-15T23:42:09.001Z,6.04
2022-11-15T23:44:36.200Z,6.12
2022-11-15T23:47:02.655Z,6.08
2022-11-15T23:49:29.131Z,5.97
2022-11-15T23:51:55.686Z,6.08
2022-11-15T23:54:22.198Z,5.89
2022-11-15T23:56:48.725Z,5.89
2022-11-15T23:59:15.255Z,5.94
